createdAt,value
2022-12-27T00:04:24.647Z,7.52
2022-12-27T00:09:30.430Z,7.61
2022-12-27T00:14:34.934Z,7.26
2022-12-27T00:19:39.265Z,7.42
2022-12-27T00:24:48.102Z,6.84
2022-12-27T00:29:52.453Z,7.12
2022-12-27T00:34:57.009Z,7.32
2022-12-27T00:40:02.887Z,7.47
2022-12-27T00:45:08.793Z,7.36
2022-12-27T00:50:13.184Z,6.86
2022-12-27T00:55:20.115Z,6.81
2022-12-27T01:00:24.757Z,7.02
2022-12-27T01:05:31.542Z,6.97
2022-12-27T01:10:37.308Z,6.74
2022-12-27T01:15:43.452Z,7.23
2022-12-27T01:20:49.519Z,7.59
2022-12-27T01:26:02.317Z,7.17
2022-12-27T01:31:07.720Z,7.43
2022-12-27T01:36:14.264Z,7.52
2022-12-27T01:41:39.903Z,7.20
2022-12-27T01:46:44.209Z,7.51
2022-12-27T01:51:48.684Z,7.68
2022-12-27T01:56:55.859Z,8.19
2022-12-27T02:02:01.431Z,7.21
2022-12-27T02:07:08.585Z,7.33
2022-12-27T02:12:15.403Z,7.61
2022-12-27T02:17:24.073Z,7.45
2022-12-27T02:23:12.692Z,7.51
2022-12-27T02:28:36.437Z,7.41
2022-12-27T02:33:48.085Z,7.34
2022-12-27T02:38:57.525Z,7.35
2022-12-27T02:44:19.250Z,7.28
2022-12-27T02:49:44.522Z,7.02
2022-12-27T02:55:06.025Z,7.37
2022-12-27T03:00:31.826Z,7.13
2022-12-27T03:06:09.116Z,7.33
2022-12-27T03:11:30.833Z,7.57
2022-12-27T03:16:42.848Z,7.50
2022-12-27T03:22:08.955Z,7.34
2022-12-27T03:27:18.322Z,7.03
2022-12-27T03:32:42.641Z,6.98
2022-12-27T03:38:05.666Z,7.13
2022-12-27T03:43:15.127Z,6.79
2022-12-27T03:48:25.222Z,7.28
2022-12-27T03:53:35.624Z,6.78
2022-12-27T03:58:39.879Z,7.18
2022-12-27T04:03:46.442Z,6.82
2022-12-27T04:09:12.802Z,6.54
2022-12-27T04:14:35.444Z,6.64
2022-12-27T04:19:57.245Z,6.66
2022-12-27T04:25:20.006Z,6.58
2022-12-27T04:30:41.544Z,6.30
2022-12-27T04:35:48.120Z,6.67
2022-12-27T04:41:14.120Z,6.62
2022-12-27T04:46:41.195Z,6.43
2022-12-27T04:52:02.660Z,6.85
2022-12-27T04:57:08.812Z,6.25
2022-12-27T05:02:13.703Z,6.41
2022-12-27T05:07:50.263Z,6.51
2022-12-27T05:13:15.350Z,6.45
2022-12-27T05:18:22.716Z,6.55
2022-12-27T05:23:46.819Z,6.42
2022-12-27T05:28:57.244Z,6.63
2022-12-27T05:34:04.904Z,6.69
2022-12-27T05:39:12.386Z,6.61
2022-12-27T05:44:21.343Z,6.72
2022-12-27T05:49:26.874Z,6.75
2022-12-27T05:54:31.204Z,6.94
2022-12-27T05:59:37.158Z,7.00
2022-12-27T06:04:41.430Z,6.76
2022-12-27T06:09:45.809Z,6.53
2022-12-27T06:14:51.605Z,6.58
2022-12-27T06:19:57.428Z,6.47
2022-12-27T06:25:03.611Z,6.36
2022-12-27T06:30:13.922Z,6.43
2022-12-27T06:35:21.804Z,6.43
2022-12-27T06:40:29.251Z,6.33
2022-12-27T06:45:37.307Z,6.30
2022-12-27T06:50:41.745Z,6.44
2022-12-27T06:55:45.999Z,6.52
2022-12-27T07:00:51.848Z,6.45
2022-12-27T07:05:56.188Z,6.48
2022-12-27T07:11:02.048Z,6.55
2022-12-27T07:16:09.443Z,6.65
2022-12-27T07:21:16.902Z,6.55
2022-12-27T07:26:24.573Z,6.79
2022-12-27T07:31:32.366Z,6.70
2022-12-27T07:36:40.277Z,6.02
2022-12-27T07:41:44.621Z,5.87
2022-12-27T07:46:52.513Z,5.30
2022-12-27T07:51:57.040Z,5.33
2022-12-27T07:57:01.526Z,5.55
2022-12-27T08:02:10.405Z,5.42
2022-12-27T08:07:17.874Z,5.07
2022-12-27T08:12:22.347Z,5.14
2022-12-27T08:17:29.145Z,5.04
2022-12-27T08:22:33.554Z,4.97
2022-12-27T08:27:37.869Z,4.77
2022-12-27T08:32:43.969Z,4.76
2022-12-27T08:37:48.396Z,4.50
2022-12-27T08:42:52.906Z,4.48
2022-12-27T08:48:02.354Z,4.75
2022-12-27T08:53:07.083Z,4.97
2022-12-27T08:58:16.162Z,4.77
2022-12-27T09:03:23.038Z,4.81
2022-12-27T09:08:27.495Z,4.75
2022-12-27T09:13:32.226Z,4.63
2022-12-27T09:18:38.241Z,4.88
2022-12-27T09:23:43.247Z,4.59
2022-12-27T09:28:48.056Z,4.79
2022-12-27T09:33:54.467Z,4.68
2022-12-27T09:39:00.478Z,4.90
2022-12-27T09:44:09.758Z,4.53
2022-12-27T09:49:19.680Z,4.16
2022-12-27T09:54:31.207Z,4.43
2022-12-27T09:59:40.699Z,4.56
2022-12-27T10:05:18.380Z,4.21
2022-12-27T10:10:17.689Z,4.11
2022-12-27T10:15:29.909Z,4.44
2022-12-27T10:20:57.686Z,4.61
2022-12-27T10:26:06.505Z,5.07
2022-12-27T10:31:16.643Z,5.28
2022-12-27T10:36:26.142Z,5.55
2022-12-27T10:41:50.424Z,5.38
2022-12-27T10:46:57.491Z,5.35
2022-12-27T10:52:11.447Z,5.51
2022-12-27T10:57:27.055Z,4.95
2022-12-27T11:02:31.542Z,4.74
2022-12-27T11:07:39.049Z,4.70
2022-12-27T11:12:56.505Z,4.67
2022-12-27T11:18:03.583Z,4.49
2022-12-27T11:23:15.059Z,4.65
2022-12-27T11:28:24.151Z,4.18
2022-12-27T11:33:40.020Z,3.89
2022-12-27T11:38:48.135Z,3.45
2022-12-27T11:43:55.821Z,3.39
2022-12-27T11:49:00.834Z,3.77
2022-12-27T11:54:30.966Z,4.36
2022-12-27T11:59:47.937Z,4.66
2022-12-27T12:05:41.857Z,4.40
2022-12-27T12:10:55.032Z,4.32
2022-12-27T12:16:37.671Z,4.70
2022-12-27T12:21:58.787Z,5.48
2022-12-27T12:27:29.250Z,5.13
2022-12-27T12:32:55.097Z,4.96
2022-12-27T12:38:06.357Z,5.09
2022-12-27T12:43:25.455Z,4.83
2022-12-27T12:49:01.675Z,4.38
2022-12-27T12:54:18.868Z,4.76
2022-12-27T12:59:41.656Z,5.17
2022-12-27T13:05:04.490Z,5.64
2022-12-27T13:10:45.890Z,5.50
2022-12-27T13:16:13.183Z,5.47
2022-12-27T13:21:29.862Z,5.38
2022-12-27T13:26:43.782Z,4.99
2022-12-27T13:31:58.213Z,5.30
2022-12-27T13:37:15.629Z,5.24
2022-12-27T13:43:00.794Z,4.47
2022-12-27T13:48:24.353Z,4.38
2022-12-27T13:54:08.144Z,4.19
2022-12-27T13:59:37.968Z,4.13
2022-12-27T14:04:59.758Z,4.27
2022-12-27T14:10:14.740Z,4.19
2022-12-27T14:15:23.546Z,4.14
2022-12-27T14:20:44.406Z,3.89
2022-12-27T14:26:30.646Z,3.90
2022-12-27T14:32:06.902Z,3.86
2022-12-27T14:38:01.356Z,4.04
2022-12-27T14:43:39.125Z,3.81
2022-12-27T14:49:14.351Z,3.88
2022-12-27T14:54:49.293Z,4.04
2022-12-27T15:00:03.930Z,4.08
2022-12-27T15:05:25.002Z,3.95
2022-12-27T15:10:48.292Z,3.88
2022-12-27T15:16:02.361Z,3.78
2022-12-27T15:21:21.716Z,3.77
2022-12-27T15:26:38.746Z,3.96
2022-12-27T15:31:54.660Z,3.93
2022-12-27T15:37:02.539Z,3.86
2022-12-27T15:42:36.479Z,4.08
2022-12-27T15:48:09.482Z,3.97
2022-12-27T15:53:48.543Z,4.15
2022-12-27T15:59:29.948Z,3.81
2022-12-27T16:04:49.507Z,3.58
2022-12-27T16:09:55.966Z,3.53
2022-12-27T16:15:40.103Z,3.61
2022-12-27T16:20:56.995Z,3.50
2022-12-27T16:26:07.173Z,3.48
2022-12-27T16:31:13.791Z,3.52
2022-12-27T16:36:22.946Z,3.52
2022-12-27T16:41:44.658Z,3.57
2022-12-27T16:47:08.976Z,4.00
2022-12-27T16:52:35.674Z,3.96
2022-12-27T16:57:44.295Z,3.85
2022-12-27T17:02:51.899Z,3.89
2022-12-27T17:08:17.093Z,4.30
2022-12-27T17:13:34.603Z,3.80
2022-12-27T17:18:47.050Z,3.89
2022-12-27T17:23:52.641Z,3.79
2022-12-27T17:29:07.877Z,4.19
2022-12-27T17:34:21.795Z,4.24
2022-12-27T17:39:50.477Z,4.29
2022-12-27T17:45:14.390Z,4.62
2022-12-27T17:50:23.984Z,4.36
2022-12-27T17:55:47.790Z,4.22
2022-12-27T18:00:58.481Z,4.16
2022-12-27T18:06:03.469Z,4.11
2022-12-27T18:11:10.408Z,3.87
2022-12-27T18:16:20.089Z,3.97
2022-12-27T18:21:26.577Z,4.31
2022-12-27T18:26:37.903Z,3.72
2022-12-27T18:31:49.909Z,3.67
2022-12-27T18:37:02.044Z,3.51
2022-12-27T18:42:20.089Z,3.79
2022-12-27T18:47:28.353Z,3.89
2022-12-27T18:52:35.350Z,3.98
2022-12-27T18:57:39.718Z,3.59
2022-12-27T19:02:46.333Z,3.74
2022-12-27T19:07:55.555Z,3.81
2022-12-27T19:13:04.342Z,3.59
2022-12-27T19:18:23.395Z,3.74
2022-12-27T19:23:34.011Z,3.59
2022-12-27T19:28:38.554Z,3.57
2022-12-27T19:33:46.982Z,3.53
2022-12-27T19:38:51.640Z,3.79
2022-12-27T19:43:56.652Z,3.67
2022-12-27T19:54:26.792Z,3.72
2022-12-27T19:59:31.295Z,3.81
2022-12-27T20:04:37.108Z,3.66
2022-12-27T20:09:41.259Z,3.88
2022-12-27T20:14:45.945Z,3.46
2022-12-27T20:19:53.555Z,3.47
2022-12-27T20:24:58.214Z,3.64
2022-12-27T20:30:02.758Z,3.48
2022-12-27T20:35:09.970Z,3.57
2022-12-27T20:40:16.308Z,3.51
2022-12-27T20:45:21.500Z,3.42
2022-12-27T20:50:27.625Z,3.47
2022-12-27T20:55:33.511Z,3.59
2022-12-27T21:00:41.206Z,3.51
2022-12-27T21:05:48.372Z,3.34
2022-12-27T21:10:52.858Z,3.20
2022-12-27T21:15:57.753Z,3.17
2022-12-27T21:21:04.326Z,3.26
2022-12-27T21:26:30.249Z,3.31
2022-12-27T21:31:35.028Z,3.37
2022-12-27T21:36:41.531Z,2.94
2022-12-27T21:41:46.583Z,2.92
2022-12-27T21:46:51.294Z,2.91
2022-12-27T21:51:57.393Z,2.77
2022-12-27T21:57:01.804Z,2.72
2022-12-27T22:02:06.425Z,2.83
2022-12-27T22:07:13.670Z,2.34
2022-12-27T22:12:18.157Z,2.72
2022-12-27T22:17:24.009Z,2.64
2022-12-27T22:22:29.984Z,2.88
2022-12-27T22:27:34.528Z,2.44
2022-12-27T22:32:39.009Z,2.27
2022-12-27T22:37:45.073Z,2.53
2022-12-27T22:42:50.893Z,2.42
2022-12-27T22:47:55.109Z,2.34
2022-12-27T22:53:01.303Z,2.25
2022-12-27T22:58:05.806Z,2.36
2022-12-27T23:03:11.273Z,2.55
2022-12-27T23:08:17.359Z,2.05
2022-12-27T23:13:24.104Z,1.96
2022-12-27T23:18:29.583Z,1.80
2022-12-27T23:23:35.703Z,1.73
2022-12-27T23:28:41.867Z,1.82
2022-12-27T23:33:46.371Z,1.49
2022-12-27T23:38:55.443Z,1.51
2022-12-27T23:44:02.133Z,1.86
2022-12-27T23:49:06.804Z,1.64
2022-12-27T23:54:12.809Z,1.79
2022-12-27T23:59:18.102Z,1.49
